Airfield :
LOGIN :

Register | Disclaimer

   EN    FR    IT 

 










Legend :    VFR   Marginal VFR   IFR   Intensive IFR   Very Intensive IFR
Visi :
Ceiling :
>= 8 km
>= 3000ft
5 to 8 km
1000 to 3000 ft
1500m to 5 km
500 to 1000 ft
800 to 1500m
200 to 500 ft
< 800m
< 200 ft
Symbols :   Thunderstorms  Fog  Heavy snow  Heavy precipitations  Wind > 20 kt
SIGMETs :     Misc.  Thunderstorms  Icing  Turbulence  Mountain Waves  Volcanic Ashes






- Airport Elevation : 285 ft
- IATA code : GOZ


LBGO - Gorna Oryahovitsa

CURRENT METAR :
  • 260330Z AUTO 14002KT 9999 NCD 09/09 Q1021 NOSIG

EXPIRED METARs :
  • 260300Z AUTO 00000KT 9999 NCD 09/09 Q1021 NOSIG
  • 260230Z AUTO 10001KT 9000 NCD 09/09 Q1021
  • 260200Z AUTO 09003KT 8000 NCD 09/09 Q1021
  • 260130Z AUTO 08003KT 9999 NCD 09/09 Q1020

TAF TAF LBGO
Valid from the 26 at 00:00 until the 27 at 00:00 UTC


260239Z 2600/2624 VRB04KT 9999 SCT040 BKN060
PROB30
TEMPO 2600/2605 5000 SHRA FEW030CB OVC040
TEMPO 2610/2618 VRB16G26KT 3000 TSRA SCT015 SCT025CB BKN040



MET'MAP, your aeronautical weather chart ! - Copyright ORBIFLY December 2007 - Disclaimer

ORBIFLY MET'MAP TEAM :

Programming & Development : Alexandra Zaïnal
Concept & original design : Baudouin d'Aumeries
Assistance for programming : Marc-Olivier Méhu
Technical & hardware support : Manuel Goepfert

Contact : metmap@orbifly.com




SOURCES & CREDITS :

   NOAA